sensor_id;sensor_type;location;lat;lon;timestamp;temperature;humidity
1075;DHT22;526;51.392;12.448;2023-02-15T00:00:26;0.10;97.30
1075;DHT22;526;51.392;12.448;2023-02-15T00:02:51;0.10;97.30
1075;DHT22;526;51.392;12.448;2023-02-15T00:05:17;0.10;97.30
1075;DHT22;526;51.392;12.448;2023-02-15T00:07:42;0.10;97.30
1075;DHT22;526;51.392;12.448;2023-02-15T00:10:08;0.10;97.30
1075;DHT22;526;51.392;12.448;2023-02-15T00:12:34;0.10;97.30
1075;DHT22;526;51.392;12.448;2023-02-15T00:14:59;0.20;97.30
1075;DHT22;526;51.392;12.448;2023-02-15T00:17:27;0.20;97.30
1075;DHT22;526;51.392;12.448;2023-02-15T00:19:53;0.20;97.30
1075;DHT22;526;51.392;12.448;2023-02-15T00:22:19;0.20;97.30
1075;DHT22;526;51.392;12.448;2023-02-15T00:24:45;0.20;97.30
1075;DHT22;526;51.392;12.448;2023-02-15T00:27:10;0.10;97.30
1075;DHT22;526;51.392;12.448;2023-02-15T00:29:36;0.20;97.30
1075;DHT22;526;51.392;12.448;2023-02-15T00:32:01;0.20;97.30
1075;DHT22;526;51.392;12.448;2023-02-15T00:34:27;0.20;97.30
1075;DHT22;526;51.392;12.448;2023-02-15T00:36:53;0.20;97.30
1075;DHT22;526;51.392;12.448;2023-02-15T00:39:19;0.20;97.30
1075;DHT22;526;51.392;12.448;2023-02-15T00:41:46;0.10;97.30
1075;DHT22;526;51.392;12.448;2023-02-15T00:44:12;0.10;97.30
1075;DHT22;526;51.392;12.448;2023-02-15T00:46:37;0.10;97.30
1075;DHT22;526;51.392;12.448;2023-02-15T00:49:03;0.10;97.30
1075;DHT22;526;51.392;12.448;2023-02-15T00:51:29;0.10;97.30
1075;DHT22;526;51.392;12.448;2023-02-15T00:53:55;0.10;97.30
1075;DHT22;526;51.392;12.448;2023-02-15T00:56:20;0.10;97.30
1075;DHT22;526;51.392;12.448;2023-02-15T00:58:46;0.10;97.30
1075;DHT22;526;51.392;12.448;2023-02-15T01:01:17;0.10;97.30
1075;DHT22;526;51.392;12.448;2023-02-15T01:03:43;0.10;97.30
1075;DHT22;526;51.392;12.448;2023-02-15T01:06:11;0.10;97.30
1075;DHT22;526;51.392;12.448;2023-02-15T01:08:37;0.10;97.30
1075;DHT22;526;51.392;12.448;2023-02-15T01:11:24;0.10;97.30
1075;DHT22;526;51.392;12.448;2023-02-15T01:13:51;0.10;97.30
1075;DHT22;526;51.392;12.448;2023-02-15T01:16:17;0.10;97.30
1075;DHT22;526;51.392;12.448;2023-02-15T01:18:43;0.10;97.30
1075;DHT22;526;51.392;12.448;2023-02-15T01:21:10;0.10;97.30
1075;DHT22;526;51.392;12.448;2023-02-15T01:23:36;0.10;97.30
1075;DHT22;526;51.392;12.448;2023-02-15T01:26:02;0.10;97.30
1075;DHT22;526;51.392;12.448;2023-02-15T01:28:28;0.00;97.30
1075;DHT22;526;51.392;12.448;2023-02-15T01:30:53;0.00;97.30
1075;DHT22;526;51.392;12.448;2023-02-15T01:33:19;0.00;97.30
1075;DHT22;526;51.392;12.448;2023-02-15T01:35:45;0.00;97.30
1075;DHT22;526;51.392;12.448;2023-02-15T01:38:12;0.00;97.30
1075;DHT22;526;51.392;12.448;2023-02-15T01:40:38;0.00;97.30
1075;DHT22;526;51.392;12.448;2023-02-15T01:43:09;-0.10;97.30
1075;DHT22;526;51.392;12.448;2023-02-15T01:45:35;-0.10;97.30
1075;DHT22;526;51.392;12.448;2023-02-15T01:48:22;-0.10;97.30
1075;DHT22;526;51.392;12.448;2023-02-15T01:50:53;-0.20;97.30
1075;DHT22;526;51.392;12.448;2023-02-15T01:56:18;-0.20;97.30
1075;DHT22;526;51.392;12.448;2023-02-15T01:58:46;-0.20;97.30
1075;DHT22;526;51.392;12.448;2023-02-15T02:01:13;-0.20;97.30
1075;DHT22;526;51.392;12.448;2023-02-15T02:06:23;-0.30;97.30
1075;DHT22;526;51.392;12.448;2023-02-15T02:08:49;-0.30;97.30
1075;DHT22;526;51.392;12.448;2023-02-15T02:11:15;-0.30;97.30
1075;DHT22;526;51.392;12.448;2023-02-15T02:13:42;-0.30;97.30
1075;DHT22;526;51.392;12.448;2023-02-15T02:16:20;-0.40;97.30
1075;DHT22;526;51.392;12.448;2023-02-15T02:19:09;-0.40;97.30
1075;DHT22;526;51.392;12.448;2023-02-15T02:24:59;-0.40;97.30
1075;DHT22;526;51.392;12.448;2023-02-15T02:27:40;-0.40;97.30
1075;DHT22;526;51.392;12.448;2023-02-15T02:35:57;-0.50;97.30
1075;DHT22;526;51.392;12.448;2023-02-15T02:38:52;-0.50;97.30
1075;DHT22;526;51.392;12.448;2023-02-15T02:41:36;-0.50;97.30
1075;DHT22;526;51.392;12.448;2023-02-15T02:44:08;-0.60;97.30
1075;DHT22;526;51.392;12.448;2023-02-15T02:49:04;-0.60;97.30
1075;DHT22;526;51.392;12.448;2023-02-15T02:51:29;-0.70;97.30
1075;DHT22;526;51.392;12.448;2023-02-15T02:53:57;-0.70;97.30
1075;DHT22;526;51.392;12.448;2023-02-15T02:56:32;-0.70;97.30
1075;DHT22;526;51.392;12.448;2023-02-15T02:59:20;-0.80;97.30
1075;DHT22;526;51.392;12.448;2023-02-15T03:01:56;-0.80;97.30
1075;DHT22;526;51.392;12.448;2023-02-15T03:04:28;-0.80;97.30
1075;DHT22;526;51.392;12.448;2023-02-15T03:07:01;-0.80;97.30
1075;DHT22;526;51.392;12.448;2023-02-15T03:09:35;-0.80;97.30
1075;DHT22;526;51.392;12.448;2023-02-15T03:12:11;-0.90;97.30
1075;DHT22;526;51.392;12.448;2023-02-15T03:14:37;-0.90;97.30
1075;DHT22;526;51.392;12.448;2023-02-15T03:17:05;-0.90;97.30
1075;DHT22;526;51.392;12.448;2023-02-15T03:19:33;-0.90;97.30
1075;DHT22;526;51.392;12.448;2023-02-15T03:22:04;-1.00;97.30
1075;DHT22;526;51.392;12.448;2023-02-15T03:25:09;-0.90;97.30
1075;DHT22;526;51.392;12.448;2023-02-15T03:27:38;-1.00;97.30
1075;DHT22;526;51.392;12.448;2023-02-15T03:30:07;-1.00;97.30
1075;DHT22;526;51.392;12.448;2023-02-15T03:32:35;-1.00;97.30
1075;DHT22;526;51.392;12.448;2023-02-15T03:35:02;-1.00;97.30
1075;DHT22;526;51.392;12.448;2023-02-15T03:37:43;-1.00;97.30
1075;DHT22;526;51.392;12.448;2023-02-15T03:45:40;-1.10;97.30
1075;DHT22;526;51.392;12.448;2023-02-15T03:48:27;-1.10;97.30
1075;DHT22;526;51.392;12.448;2023-02-15T03:51:00;-1.10;97.30
1075;DHT22;526;51.392;12.448;2023-02-15T03:53:47;-1.10;97.30
1075;DHT22;526;51.392;12.448;2023-02-15T03:56:13;-1.10;97.30
1075;DHT22;526;51.392;12.448;2023-02-15T03:58:39;-1.10;97.30
1075;DHT22;526;51.392;12.448;2023-02-15T04:01:27;-1.10;97.30
1075;DHT22;526;51.392;12.448;2023-02-15T04:04:45;-1.20;97.30
1075;DHT22;526;51.392;12.448;2023-02-15T04:07:08;-1.10;97.30
1075;DHT22;526;51.392;12.448;2023-02-15T04:09:34;-1.10;97.30
1075;DHT22;526;51.392;12.448;2023-02-15T04:12:18;-1.10;97.30
1075;DHT22;526;51.392;12.448;2023-02-15T04:14:44;-1.10;97.30
1075;DHT22;526;51.392;12.448;2023-02-15T04:17:28;-1.10;97.30
1075;DHT22;526;51.392;12.448;2023-02-15T04:19:54;-1.10;97.30
1075;DHT22;526;51.392;12.448;2023-02-15T04:22:37;-1.10;97.30
1075;DHT22;526;51.392;12.448;2023-02-15T04:25:22;-1.10;97.30
1075;DHT22;526;51.392;12.448;2023-02-15T04:27:52;-1.10;97.30
1075;DHT22;526;51.392;12.448;2023-02-15T04:30:21;-1.10;97.30
1075;DHT22;526;51.392;12.448;2023-02-15T04:32:47;-1.10;97.30
1075;DHT22;526;51.392;12.448;2023-02-15T04:35:13;-1.10;97.30
1075;DHT22;526;51.392;12.448;2023-02-15T04:37:40;-1.20;97.30
1075;DHT22;526;51.392;12.448;2023-02-15T04:40:09;-1.20;97.30
1075;DHT22;526;51.392;12.448;2023-02-15T04:42:34;-1.30;97.30
1075;DHT22;526;51.392;12.448;2023-02-15T04:45:00;-1.30;97.30
1075;DHT22;526;51.392;12.448;2023-02-15T04:47:25;-1.30;97.30
1075;DHT22;526;51.392;12.448;2023-02-15T04:49:51;-1.30;97.30
1075;DHT22;526;51.392;12.448;2023-02-15T04:52:16;-1.30;97.30
1075;DHT22;526;51.392;12.448;2023-02-15T04:54:45;-1.30;97.30
1075;DHT22;526;51.392;12.448;2023-02-15T04:57:11;-1.30;97.30
1075;DHT22;526;51.392;12.448;2023-02-15T04:59:36;-1.40;97.30
1075;DHT22;526;51.392;12.448;2023-02-15T05:02:02;-1.40;97.30
1075;DHT22;526;51.392;12.448;2023-02-15T05:04:27;-1.30;97.30
1075;DHT22;526;51.392;12.448;2023-02-15T05:06:53;-1.30;97.30
1075;DHT22;526;51.392;12.448;2023-02-15T05:09:19;-1.30;97.30
1075;DHT22;526;51.392;12.448;2023-02-15T05:11:44;-1.40;97.30
1075;DHT22;526;51.392;12.448;2023-02-15T05:14:10;-1.40;97.30
1075;DHT22;526;51.392;12.448;2023-02-15T05:16:35;-1.40;97.30
1075;DHT22;526;51.392;12.448;2023-02-15T05:19:01;-1.40;97.30
1075;DHT22;526;51.392;12.448;2023-02-15T05:21:27;-1.40;97.30
1075;DHT22;526;51.392;12.448;2023-02-15T05:23:52;-1.40;97.30
1075;DHT22;526;51.392;12.448;2023-02-15T05:26:21;-1.40;97.30
1075;DHT22;526;51.392;12.448;2023-02-15T05:29:06;-1.40;97.30
1075;DHT22;526;51.392;12.448;2023-02-15T05:31:32;-1.40;97.30
1075;DHT22;526;51.392;12.448;2023-02-15T05:33:58;-1.40;97.30
1075;DHT22;526;51.392;12.448;2023-02-15T05:36:24;-1.40;97.30
1075;DHT22;526;51.392;12.448;2023-02-15T05:38:49;-1.40;97.30
1075;DHT22;526;51.392;12.448;2023-02-15T05:41:15;-1.40;97.30
1075;DHT22;526;51.392;12.448;2023-02-15T05:43:40;-1.40;97.30
1075;DHT22;526;51.392;12.448;2023-02-15T05:46:06;-1.40;97.30
1075;DHT22;526;51.392;12.448;2023-02-15T05:48:32;-1.40;97.30
1075;DHT22;526;51.392;12.448;2023-02-15T05:51:03;-1.50;97.30
1075;DHT22;526;51.392;12.448;2023-02-15T05:53:31;-1.50;97.30
1075;DHT22;526;51.392;12.448;2023-02-15T05:55:57;-1.50;97.30
1075;DHT22;526;51.392;12.448;2023-02-15T05:58:28;-1.50;97.30
1075;DHT22;526;51.392;12.448;2023-02-15T06:00:54;-1.50;97.30
1075;DHT22;526;51.392;12.448;2023-02-15T06:03:20;-1.50;97.30
1075;DHT22;526;51.392;12.448;2023-02-15T06:05:46;-1.50;97.30
1075;DHT22;526;51.392;12.448;2023-02-15T06:08:11;-1.60;97.30
1075;DHT22;526;51.392;12.448;2023-02-15T06:10:37;-1.60;97.30
1075;DHT22;526;51.392;12.448;2023-02-15T06:13:02;-1.60;97.30
1075;DHT22;526;51.392;12.448;2023-02-15T06:15:28;-1.60;97.30
1075;DHT22;526;51.392;12.448;2023-02-15T06:17:53;-1.70;97.30
1075;DHT22;526;51.392;12.448;2023-02-15T06:20:19;-1.70;97.30
1075;DHT22;526;51.392;12.448;2023-02-15T06:22:44;-1.70;97.30
1075;DHT22;526;51.392;12.448;2023-02-15T06:25:10;-1.70;97.30
1075;DHT22;526;51.392;12.448;2023-02-15T06:27:37;-1.70;97.30
1075;DHT22;526;51.392;12.448;2023-02-15T06:30:04;-1.70;97.30
1075;DHT22;526;51.392;12.448;2023-02-15T06:32:31;-1.70;97.30
1075;DHT22;526;51.392;12.448;2023-02-15T06:34:56;-1.70;97.30
1075;DHT22;526;51.392;12.448;2023-02-15T06:37:22;-1.70;97.30
1075;DHT22;526;51.392;12.448;2023-02-15T06:39:47;-1.70;97.30
1075;DHT22;526;51.392;12.448;2023-02-15T06:42:13;-1.70;97.30
1075;DHT22;526;51.392;12.448;2023-02-15T06:44:38;-1.70;97.30
1075;DHT22;526;51.392;12.448;2023-02-15T06:47:04;-1.70;97.30
1075;DHT22;526;51.392;12.448;2023-02-15T06:49:29;-1.70;97.30
1075;DHT22;526;51.392;12.448;2023-02-15T06:51:55;-1.70;97.30
1075;DHT22;526;51.392;12.448;2023-02-15T06:54:20;-1.60;97.30
1075;DHT22;526;51.392;12.448;2023-02-15T06:56:46;-1.60;97.30
1075;DHT22;526;51.392;12.448;2023-02-15T06:59:11;-1.50;97.30
1075;DHT22;526;51.392;12.448;2023-02-15T07:01:37;-1.50;97.30
1075;DHT22;526;51.392;12.448;2023-02-15T07:04:03;-1.40;97.30
1075;DHT22;526;51.392;12.448;2023-02-15T07:06:32;-1.30;97.30
1075;DHT22;526;51.392;12.448;2023-02-15T07:08:58;-1.20;97.30
1075;DHT22;526;51.392;12.448;2023-02-15T07:11:25;-1.20;97.30
1075;DHT22;526;51.392;12.448;2023-02-15T07:14:09;-1.10;97.30
1075;DHT22;526;51.392;12.448;2023-02-15T07:16:35;-1.00;97.30
1075;DHT22;526;51.392;12.448;2023-02-15T07:19:00;-1.00;97.30
1075;DHT22;526;51.392;12.448;2023-02-15T07:21:26;-0.90;97.30
1075;DHT22;526;51.392;12.448;2023-02-15T07:23:52;-0.80;97.30
1075;DHT22;526;51.392;12.448;2023-02-15T07:26:19;-0.70;97.30
1075;DHT22;526;51.392;12.448;2023-02-15T07:28:45;-0.60;97.30
1075;DHT22;526;51.392;12.448;2023-02-15T07:31:10;-0.50;97.30
1075;DHT22;526;51.392;12.448;2023-02-15T07:33:36;-0.40;97.30
1075;DHT22;526;51.392;12.448;2023-02-15T07:36:03;-0.30;97.30
1075;DHT22;526;51.392;12.448;2023-02-15T07:38:34;-0.20;97.30
1075;DHT22;526;51.392;12.448;2023-02-15T07:41:02;-0.10;97.30
1075;DHT22;526;51.392;12.448;2023-02-15T07:43:28;0.10;97.30
1075;DHT22;526;51.392;12.448;2023-02-15T07:45:58;0.20;97.30
1075;DHT22;526;51.392;12.448;2023-02-15T07:48:24;0.30;97.30
1075;DHT22;526;51.392;12.448;2023-02-15T07:50:49;0.50;97.30
1075;DHT22;526;51.392;12.448;2023-02-15T07:53:14;0.60;97.30
1075;DHT22;526;51.392;12.448;2023-02-15T07:55:40;0.80;97.30
1075;DHT22;526;51.392;12.448;2023-02-15T07:58:05;0.90;97.30
1075;DHT22;526;51.392;12.448;2023-02-15T08:00:31;1.10;97.30
1075;DHT22;526;51.392;12.448;2023-02-15T08:03:16;1.20;97.30
1075;DHT22;526;51.392;12.448;2023-02-15T08:05:43;1.30;97.30
1075;DHT22;526;51.392;12.448;2023-02-15T08:08:10;1.40;97.30
1075;DHT22;526;51.392;12.448;2023-02-15T08:11:14;1.50;97.30
1075;DHT22;526;51.392;12.448;2023-02-15T08:14:04;1.70;97.30
1075;DHT22;526;51.392;12.448;2023-02-15T08:19:00;1.90;97.30
1075;DHT22;526;51.392;12.448;2023-02-15T08:21:28;2.10;97.30
1075;DHT22;526;51.392;12.448;2023-02-15T08:23:55;2.20;97.30
1075;DHT22;526;51.392;12.448;2023-02-15T08:26:21;2.30;97.30
1075;DHT22;526;51.392;12.448;2023-02-15T08:28:47;2.40;97.30
1075;DHT22;526;51.392;12.448;2023-02-15T08:31:14;2.50;97.30
1075;DHT22;526;51.392;12.448;2023-02-15T08:33:40;2.60;97.30
1075;DHT22;526;51.392;12.448;2023-02-15T08:36:09;2.80;97.30
1075;DHT22;526;51.392;12.448;2023-02-15T08:38:36;2.90;97.30
1075;DHT22;526;51.392;12.448;2023-02-15T08:41:23;3.00;97.30
1075;DHT22;526;51.392;12.448;2023-02-15T08:43:52;3.20;97.30
1075;DHT22;526;51.392;12.448;2023-02-15T08:46:20;3.40;97.30
1075;DHT22;526;51.392;12.448;2023-02-15T08:48:46;3.50;97.30
1075;DHT22;526;51.392;12.448;2023-02-15T08:51:17;3.60;97.30
1075;DHT22;526;51.392;12.448;2023-02-15T08:53:45;3.70;97.30
1075;DHT22;526;51.392;12.448;2023-02-15T08:56:11;3.90;97.30
1075;DHT22;526;51.392;12.448;2023-02-15T08:58:37;4.00;97.30
1075;DHT22;526;51.392;12.448;2023-02-15T09:01:24;4.20;97.30
1075;DHT22;526;51.392;12.448;2023-02-15T09:03:51;4.40;97.30
1075;DHT22;526;51.392;12.448;2023-02-15T09:06:21;4.50;97.30
1075;DHT22;526;51.392;12.448;2023-02-15T09:08:47;4.60;97.30
1075;DHT22;526;51.392;12.448;2023-02-15T09:11:25;4.70;97.30
1075;DHT22;526;51.392;12.448;2023-02-15T09:13:52;4.80;97.30
1075;DHT22;526;51.392;12.448;2023-02-15T09:16:19;5.00;97.30
1075;DHT22;526;51.392;12.448;2023-02-15T09:18:45;5.10;97.30
1075;DHT22;526;51.392;12.448;2023-02-15T09:21:16;5.20;97.30
1075;DHT22;526;51.392;12.448;2023-02-15T09:23:43;5.30;97.30
1075;DHT22;526;51.392;12.448;2023-02-15T09:26:11;5.40;97.30
1075;DHT22;526;51.392;12.448;2023-02-15T09:28:38;5.40;97.30
1075;DHT22;526;51.392;12.448;2023-02-15T09:31:14;5.50;97.30
1075;DHT22;526;51.392;12.448;2023-02-15T09:33:41;5.50;97.30
1075;DHT22;526;51.392;12.448;2023-02-15T09:36:19;5.60;97.30
1075;DHT22;526;51.392;12.448;2023-02-15T09:38:46;5.70;97.30
1075;DHT22;526;51.392;12.448;2023-02-15T09:44:11;5.90;97.30
1075;DHT22;526;51.392;12.448;2023-02-15T09:47:09;6.00;97.30
1075;DHT22;526;51.392;12.448;2023-02-15T09:50:20;6.20;97.30
1075;DHT22;526;51.392;12.448;2023-02-15T10:00:52;6.60;97.30
1075;DHT22;526;51.392;12.448;2023-02-15T10:03:25;6.70;97.30
1075;DHT22;526;51.392;12.448;2023-02-15T10:06:30;6.80;97.30
1075;DHT22;526;51.392;12.448;2023-02-15T10:20:28;7.50;97.30
1075;DHT22;526;51.392;12.448;2023-02-15T10:23:09;7.60;97.30
1075;DHT22;526;51.392;12.448;2023-02-15T10:26:04;7.70;97.30
1075;DHT22;526;51.392;12.448;2023-02-15T10:39:34;8.30;96.70
1075;DHT22;526;51.392;12.448;2023-02-15T10:45:25;8.50;96.20
1075;DHT22;526;51.392;12.448;2023-02-15T10:53:25;9.00;94.80
1075;DHT22;526;51.392;12.448;2023-02-15T11:01:34;9.20;93.80
1075;DHT22;526;51.392;12.448;2023-02-15T11:04:29;9.40;93.40
1075;DHT22;526;51.392;12.448;2023-02-15T11:07:00;9.60;92.90
1075;DHT22;526;51.392;12.448;2023-02-15T11:09:30;9.70;93.00
1075;DHT22;526;51.392;12.448;2023-02-15T11:11:59;9.90;92.70
1075;DHT22;526;51.392;12.448;2023-02-15T11:14:43;10.00;92.70
1075;DHT22;526;51.392;12.448;2023-02-15T11:17:14;10.10;92.10
1075;DHT22;526;51.392;12.448;2023-02-15T11:20:06;10.20;91.60
1075;DHT22;526;51.392;12.448;2023-02-15T11:24:59;10.40;90.90
1075;DHT22;526;51.392;12.448;2023-02-15T11:27:27;10.50;90.30
1075;DHT22;526;51.392;12.448;2023-02-15T11:30:09;10.70;90.80
1075;DHT22;526;51.392;12.448;2023-02-15T11:32:39;10.70;89.40
1075;DHT22;526;51.392;12.448;2023-02-15T11:35:26;10.80;89.80
1075;DHT22;526;51.392;12.448;2023-02-15T11:38:14;11.00;90.00
1075;DHT22;526;51.392;12.448;2023-02-15T11:43:58;11.10;88.30
1075;DHT22;526;51.392;12.448;2023-02-15T11:46:27;11.20;88.50
1075;DHT22;526;51.392;12.448;2023-02-15T11:48:52;11.30;88.20
1075;DHT22;526;51.392;12.448;2023-02-15T11:51:18;11.40;87.90
1075;DHT22;526;51.392;12.448;2023-02-15T11:56:21;11.30;87.80
1075;DHT22;526;51.392;12.448;2023-02-15T11:58:49;11.30;88.00
1075;DHT22;526;51.392;12.448;2023-02-15T12:01:18;11.30;87.60
1075;DHT22;526;51.392;12.448;2023-02-15T12:06:33;11.60;88.10
1075;DHT22;526;51.392;12.448;2023-02-15T12:09:29;11.80;88.10
1075;DHT22;526;51.392;12.448;2023-02-15T12:14:54;11.90;86.80
1075;DHT22;526;51.392;12.448;2023-02-15T12:17:26;11.90;86.50
1075;DHT22;526;51.392;12.448;2023-02-15T12:20:02;11.90;86.30
1075;DHT22;526;51.392;12.448;2023-02-15T12:22:34;11.90;86.80
1075;DHT22;526;51.392;12.448;2023-02-15T12:25:04;11.90;87.00
1075;DHT22;526;51.392;12.448;2023-02-15T12:27:43;12.10;87.20
1075;DHT22;526;51.392;12.448;2023-02-15T12:30:22;12.20;86.50
1075;DHT22;526;51.392;12.448;2023-02-15T12:32:54;12.40;86.20
1075;DHT22;526;51.392;12.448;2023-02-15T12:35:30;12.50;85.80
1075;DHT22;526;51.392;12.448;2023-02-15T12:40:29;12.80;84.90
1075;DHT22;526;51.392;12.448;2023-02-15T12:42:55;12.90;84.50
1075;DHT22;526;51.392;12.448;2023-02-15T12:45:28;13.00;84.80
1075;DHT22;526;51.392;12.448;2023-02-15T12:50:39;13.40;83.30
1075;DHT22;526;51.392;12.448;2023-02-15T12:53:15;13.20;82.80
1075;DHT22;526;51.392;12.448;2023-02-15T12:55:56;13.10;83.90
1075;DHT22;526;51.392;12.448;2023-02-15T12:58:23;13.40;84.30
1075;DHT22;526;51.392;12.448;2023-02-15T13:03:34;13.50;82.40
1075;DHT22;526;51.392;12.448;2023-02-15T13:06:01;13.60;81.90
1075;DHT22;526;51.392;12.448;2023-02-15T13:08:33;13.50;81.70
1075;DHT22;526;51.392;12.448;2023-02-15T13:11:03;13.60;82.30
1075;DHT22;526;51.392;12.448;2023-02-15T13:13:33;13.70;82.00
1075;DHT22;526;51.392;12.448;2023-02-15T13:16:05;13.70;81.70
1075;DHT22;526;51.392;12.448;2023-02-15T13:18:34;13.90;81.90
1075;DHT22;526;51.392;12.448;2023-02-15T13:21:09;14.20;80.60
1075;DHT22;526;51.392;12.448;2023-02-15T13:23:38;14.40;78.00
1075;DHT22;526;51.392;12.448;2023-02-15T13:26:05;14.40;77.60
1075;DHT22;526;51.392;12.448;2023-02-15T13:31:15;14.60;78.00
1075;DHT22;526;51.392;12.448;2023-02-15T13:33:44;14.80;76.80
1075;DHT22;526;51.392;12.448;2023-02-15T13:39:06;15.10;77.30
1075;DHT22;526;51.392;12.448;2023-02-15T13:42:05;15.50;76.20
1075;DHT22;526;51.392;12.448;2023-02-15T13:47:22;15.60;73.60
1075;DHT22;526;51.392;12.448;2023-02-15T13:50:16;15.60;74.00
1075;DHT22;526;51.392;12.448;2023-02-15T13:52:51;15.60;74.80
1075;DHT22;526;51.392;12.448;2023-02-15T14:01:26;15.80;73.00
1075;DHT22;526;51.392;12.448;2023-02-15T14:06:52;16.10;72.90
1075;DHT22;526;51.392;12.448;2023-02-15T14:09:50;16.20;73.40
1075;DHT22;526;51.392;12.448;2023-02-15T14:12:42;16.40;73.00
1075;DHT22;526;51.392;12.448;2023-02-15T14:15:26;16.40;72.60
1075;DHT22;526;51.392;12.448;2023-02-15T14:18:24;16.60;72.30
1075;DHT22;526;51.392;12.448;2023-02-15T14:24:01;16.40;72.60
1075;DHT22;526;51.392;12.448;2023-02-15T14:26:54;16.60;72.20
1075;DHT22;526;51.392;12.448;2023-02-15T14:32:11;17.00;71.90
1075;DHT22;526;51.392;12.448;2023-02-15T14:34:48;17.10;72.00
1075;DHT22;526;51.392;12.448;2023-02-15T14:37:22;17.10;71.50
1075;DHT22;526;51.392;12.448;2023-02-15T14:40:02;17.30;71.20
1075;DHT22;526;51.392;12.448;2023-02-15T14:45:54;17.40;71.10
1075;DHT22;526;51.392;12.448;2023-02-15T14:48:30;17.60;70.50
1075;DHT22;526;51.392;12.448;2023-02-15T14:50:56;17.70;70.40
1075;DHT22;526;51.392;12.448;2023-02-15T14:56:22;17.60;70.20
1075;DHT22;526;51.392;12.448;2023-02-15T15:01:35;17.50;70.00
1075;DHT22;526;51.392;12.448;2023-02-15T15:06:34;17.10;70.00
1075;DHT22;526;51.392;12.448;2023-02-15T15:11:47;17.40;70.00
1075;DHT22;526;51.392;12.448;2023-02-15T15:14:37;17.70;69.10
1075;DHT22;526;51.392;12.448;2023-02-15T15:17:09;17.90;68.50
1075;DHT22;526;51.392;12.448;2023-02-15T15:22:25;18.20;67.90
1075;DHT22;526;51.392;12.448;2023-02-15T15:24:52;18.30;67.20
1075;DHT22;526;51.392;12.448;2023-02-15T15:27:40;18.40;66.90
1075;DHT22;526;51.392;12.448;2023-02-15T15:36:22;18.40;66.30
1075;DHT22;526;51.392;12.448;2023-02-15T15:41:41;17.80;67.50
1075;DHT22;526;51.392;12.448;2023-02-15T15:49:35;17.00;69.40
1075;DHT22;526;51.392;12.448;2023-02-15T15:52:03;17.40;68.80
1075;DHT22;526;51.392;12.448;2023-02-15T15:54:34;17.80;68.20
1075;DHT22;526;51.392;12.448;2023-02-15T15:57:02;18.10;68.00
1075;DHT22;526;51.392;12.448;2023-02-15T15:59:31;18.30;67.70
1075;DHT22;526;51.392;12.448;2023-02-15T16:02:04;18.40;67.40
1075;DHT22;526;51.392;12.448;2023-02-15T16:04:32;18.10;67.80
1075;DHT22;526;51.392;12.448;2023-02-15T16:09:38;16.90;69.90
1075;DHT22;526;51.392;12.448;2023-02-15T16:12:04;16.20;71.10
1075;DHT22;526;51.392;12.448;2023-02-15T16:14:40;15.60;72.00
1075;DHT22;526;51.392;12.448;2023-02-15T16:17:08;15.00;73.00
1075;DHT22;526;51.392;12.448;2023-02-15T16:19:40;14.50;74.60
1075;DHT22;526;51.392;12.448;2023-02-15T16:22:12;14.20;75.10
1075;DHT22;526;51.392;12.448;2023-02-15T16:27:40;13.60;77.10
1075;DHT22;526;51.392;12.448;2023-02-15T16:30:36;13.20;77.30
1075;DHT22;526;51.392;12.448;2023-02-15T16:35:36;12.60;79.30
1075;DHT22;526;51.392;12.448;2023-02-15T16:38:03;12.40;79.80
1075;DHT22;526;51.392;12.448;2023-02-15T16:43:03;11.80;81.60
1075;DHT22;526;51.392;12.448;2023-02-15T16:45:31;11.50;82.10
1075;DHT22;526;51.392;12.448;2023-02-15T16:47:59;11.20;82.40
1075;DHT22;526;51.392;12.448;2023-02-15T16:50:37;11.00;82.70
1075;DHT22;526;51.392;12.448;2023-02-15T16:53:05;10.70;83.40
1075;DHT22;526;51.392;12.448;2023-02-15T16:55:35;10.60;84.00
1075;DHT22;526;51.392;12.448;2023-02-15T16:58:04;10.40;84.80
1075;DHT22;526;51.392;12.448;2023-02-15T17:00:32;10.20;85.30
1075;DHT22;526;51.392;12.448;2023-02-15T17:05:42;9.90;85.80
1075;DHT22;526;51.392;12.448;2023-02-15T17:10:44;9.70;87.20
1075;DHT22;526;51.392;12.448;2023-02-15T17:13:15;9.70;87.30
1075;DHT22;526;51.392;12.448;2023-02-15T17:18:38;9.50;87.50
1075;DHT22;526;51.392;12.448;2023-02-15T17:21:18;9.40;87.80
1075;DHT22;526;51.392;12.448;2023-02-15T17:23:46;9.20;87.90
1075;DHT22;526;51.392;12.448;2023-02-15T17:26:17;8.90;88.30
1075;DHT22;526;51.392;12.448;2023-02-15T17:28:50;8.70;89.20
1075;DHT22;526;51.392;12.448;2023-02-15T17:31:17;8.60;89.70
1075;DHT22;526;51.392;12.448;2023-02-15T17:33:43;8.30;90.80
1075;DHT22;526;51.392;12.448;2023-02-15T17:36:20;8.00;91.60
1075;DHT22;526;51.392;12.448;2023-02-15T17:41:22;7.70;92.20
1075;DHT22;526;51.392;12.448;2023-02-15T17:43:48;7.70;92.30
1075;DHT22;526;51.392;12.448;2023-02-15T17:46:13;7.70;92.50
1075;DHT22;526;51.392;12.448;2023-02-15T17:48:41;7.70;93.00
1075;DHT22;526;51.392;12.448;2023-02-15T17:51:09;7.50;93.30
1075;DHT22;526;51.392;12.448;2023-02-15T17:53:39;7.30;94.00
1075;DHT22;526;51.392;12.448;2023-02-15T17:56:05;7.30;94.10
1075;DHT22;526;51.392;12.448;2023-02-15T17:58:36;7.20;94.90
1075;DHT22;526;51.392;12.448;2023-02-15T18:01:15;7.20;95.90
1075;DHT22;526;51.392;12.448;2023-02-15T18:04:00;7.30;96.20
1075;DHT22;526;51.392;12.448;2023-02-15T18:06:44;7.30;96.30
1075;DHT22;526;51.392;12.448;2023-02-15T18:09:28;7.30;96.20
1075;DHT22;526;51.392;12.448;2023-02-15T18:12:26;7.40;95.90
1075;DHT22;526;51.392;12.448;2023-02-15T18:14:56;7.50;96.00
1075;DHT22;526;51.392;12.448;2023-02-15T18:20:01;7.40;95.30
1075;DHT22;526;51.392;12.448;2023-02-15T18:22:30;7.30;95.30
1075;DHT22;526;51.392;12.448;2023-02-15T18:24:56;7.30;95.40
1075;DHT22;526;51.392;12.448;2023-02-15T18:27:25;7.30;95.40
1075;DHT22;526;51.392;12.448;2023-02-15T18:29:50;7.20;95.40
1075;DHT22;526;51.392;12.448;2023-02-15T18:32:22;7.10;95.50
1075;DHT22;526;51.392;12.448;2023-02-15T18:34:54;7.00;95.60
1075;DHT22;526;51.392;12.448;2023-02-15T18:37:21;6.90;95.80
1075;DHT22;526;51.392;12.448;2023-02-15T18:39:48;6.80;95.80
1075;DHT22;526;51.392;12.448;2023-02-15T18:42:29;6.80;96.00
1075;DHT22;526;51.392;12.448;2023-02-15T18:45:09;6.70;96.20
1075;DHT22;526;51.392;12.448;2023-02-15T18:47:37;6.60;96.40
1075;DHT22;526;51.392;12.448;2023-02-15T18:50:05;6.60;96.60
1075;DHT22;526;51.392;12.448;2023-02-15T18:52:33;6.50;96.80
1075;DHT22;526;51.392;12.448;2023-02-15T18:55:03;6.40;97.30
1075;DHT22;526;51.392;12.448;2023-02-15T18:57:34;6.30;97.30
1075;DHT22;526;51.392;12.448;2023-02-15T19:00:00;6.20;97.30
1075;DHT22;526;51.392;12.448;2023-02-15T19:02:25;6.10;97.20
1075;DHT22;526;51.392;12.448;2023-02-15T19:04:53;6.00;97.30
1075;DHT22;526;51.392;12.448;2023-02-15T19:07:22;5.90;97.30
1075;DHT22;526;51.392;12.448;2023-02-15T19:09:51;5.80;97.30
1075;DHT22;526;51.392;12.448;2023-02-15T19:12:19;5.80;97.30
1075;DHT22;526;51.392;12.448;2023-02-15T19:14:45;5.70;97.30
1075;DHT22;526;51.392;12.448;2023-02-15T19:17:17;5.60;97.30
1075;DHT22;526;51.392;12.448;2023-02-15T19:19:46;5.60;97.30
1075;DHT22;526;51.392;12.448;2023-02-15T19:22:14;5.60;97.30
1075;DHT22;526;51.392;12.448;2023-02-15T19:24:42;5.40;97.30